Terminal Aerodrome Forecast
Issued by NWS Wilmington, OH

Home | Current Version | Previous Version | Text Only | Print | Product List | Glossary On
Versions: 1 2 3 4 5 6 7 8 9 10 11 12 13 14 15 16 17 18 19 20 21 22 23 24 25
000
FTUS41 KILN 300538
TAFDAY
TAF
KDAY 300538Z 3006/3106 31007KT P6SM BKN180
      TEMPO 3006/3007 BKN025
     FM300800 31007KT P6SM SCT200
     FM301500 30010G17KT P6SM SCT040
     FM302300 28006KT P6SM SKC=

USA.gov is the U.S. government's official web portal to all federal, state and local government web resources and services.